createdAt,value
2019-04-23T00:03:54.860Z,20.50
2019-04-23T00:06:23.581Z,20.50
2019-04-23T00:08:58.111Z,20.50
2019-04-23T00:11:32.445Z,20.50
2019-04-23T00:14:02.812Z,20.50
2019-04-23T00:18:56.326Z,20.40
2019-04-23T00:21:55.377Z,20.50
2019-04-23T00:27:22.888Z,20.40
2019-04-23T00:32:15.628Z,20.40
2019-04-23T00:34:47.385Z,20.50
2019-04-23T00:37:27.239Z,20.40
2019-04-23T00:39:46.772Z,20.50
2019-04-23T00:42:28.327Z,20.50
2019-04-23T00:44:54.391Z,20.50
2019-04-23T00:47:22.386Z,20.50
2019-04-23T00:49:51.634Z,20.50
2019-04-23T00:52:20.901Z,20.50
2019-04-23T00:54:51.912Z,20.50
2019-04-23T00:57:24.505Z,20.50
2019-04-23T00:59:58.910Z,20.50
2019-04-23T01:02:16.617Z,20.50
2019-04-23T01:04:47.992Z,20.50
2019-04-23T01:07:18.747Z,20.40
2019-04-23T01:10:02.283Z,20.50
2019-04-23T01:12:31.170Z,20.50
2019-04-23T01:14:55.632Z,20.50
2019-04-23T01:17:37.668Z,20.50
2019-04-23T01:20:14.272Z,20.50
2019-04-23T01:22:10.609Z,20.50
2019-04-23T01:24:46.671Z,20.40
2019-04-23T01:27:55.945Z,20.50
2019-04-23T01:30:13.860Z,20.50
2019-04-23T01:32:41.010Z,20.40
2019-04-23T01:35:17.657Z,20.40
2019-04-23T01:37:44.716Z,20.40
2019-04-23T01:40:18.773Z,20.50
2019-04-23T01:42:44.991Z,20.50
2019-04-23T01:45:23.387Z,20.50
2019-04-23T01:50:20.166Z,20.40
2019-04-23T01:55:21.257Z,20.50
2019-04-23T01:57:58.851Z,20.50
2019-04-23T02:00:24.173Z,20.40
2019-04-23T02:05:23.269Z,20.50
2019-04-23T02:07:50.464Z,20.50
2019-04-23T02:10:29.816Z,20.50
2019-04-23T02:12:57.090Z,20.50
2019-04-23T02:15:28.350Z,20.50
2019-04-23T02:17:53.649Z,20.40
2019-04-23T02:20:32.589Z,20.40
2019-04-23T02:23:19.934Z,20.40
2019-04-23T02:28:17.388Z,20.40
2019-04-23T02:31:03.760Z,20.40
2019-04-23T02:33:29.596Z,20.40
2019-04-23T02:35:55.903Z,20.40
2019-04-23T02:38:40.622Z,20.40
2019-04-23T02:43:16.680Z,20.50
2019-04-23T02:45:56.642Z,20.40
2019-04-23T02:50:43.929Z,20.40
2019-04-23T02:53:30.688Z,20.50
2019-04-23T03:01:08.151Z,20.40
2019-04-23T03:03:28.070Z,20.40
2019-04-23T03:05:51.056Z,20.40
2019-04-23T03:08:28.789Z,20.40
2019-04-23T03:11:01.338Z,20.40
2019-04-23T03:16:08.439Z,20.40
2019-04-23T03:21:25.452Z,20.40
2019-04-23T03:24:28.560Z,20.40
2019-04-23T03:26:55.610Z,20.40
2019-04-23T03:29:15.878Z,20.40
2019-04-23T03:34:38.394Z,20.40
2019-04-23T03:36:17.313Z,20.40
2019-04-23T03:38:51.594Z,20.40
2019-04-23T03:41:44.021Z,20.40
2019-04-23T03:43:51.507Z,20.40
2019-04-23T03:46:43.664Z,20.40
2019-04-23T03:48:59.554Z,20.40
2019-04-23T03:51:38.128Z,20.40
2019-04-23T03:54:21.874Z,20.40
2019-04-23T03:56:44.806Z,20.40
2019-04-23T04:01:34.773Z,20.40
2019-04-23T04:04:25.130Z,20.40
2019-04-23T04:06:43.681Z,20.40
2019-04-23T04:09:17.292Z,20.40
2019-04-23T04:11:52.219Z,20.40
2019-04-23T04:16:43.350Z,20.40
2019-04-23T04:19:16.840Z,20.40
2019-04-23T04:21:52.593Z,20.40
2019-04-23T04:29:11.715Z,20.40
2019-04-23T04:39:05.392Z,20.40
2019-04-23T04:41:59.128Z,20.40
2019-04-23T04:44:27.252Z,20.40
2019-04-23T04:46:45.777Z,20.40
2019-04-23T04:49:15.168Z,20.40
2019-04-23T04:56:55.849Z,20.40
2019-04-23T05:01:52.219Z,20.40
2019-04-23T05:04:19.869Z,20.40
2019-04-23T05:06:55.029Z,20.40
2019-04-23T05:11:56.018Z,20.40
2019-04-23T05:14:13.075Z,20.40
2019-04-23T05:19:28.717Z,20.40
2019-04-23T05:21:54.975Z,20.40
2019-04-23T05:24:23.198Z,20.40
2019-04-23T05:26:39.528Z,20.40
2019-04-23T05:31:45.038Z,20.40
2019-04-23T05:34:14.690Z,20.40
2019-04-23T05:36:52.155Z,20.40
2019-04-23T05:39:20.862Z,20.40
2019-04-23T05:41:45.323Z,20.40
2019-04-23T05:44:21.601Z,20.40
2019-04-23T05:46:47.062Z,20.40
2019-04-23T05:49:22.611Z,20.40
2019-04-23T05:54:27.774Z,20.40
2019-04-23T05:57:00.654Z,20.40
2019-04-23T05:59:17.725Z,20.40
2019-04-23T06:04:29.520Z,20.50
2019-04-23T06:11:57.105Z,20.40
2019-04-23T06:17:09.276Z,20.40
2019-04-23T06:24:26.107Z,20.40
2019-04-23T06:29:25.960Z,20.40
2019-04-23T06:34:37.728Z,20.40
2019-04-23T06:39:29.654Z,20.40
2019-04-23T06:41:56.299Z,20.40
2019-04-23T06:49:37.654Z,20.40
2019-04-23T06:54:36.461Z,20.40
2019-04-23T06:57:06.518Z,20.40
2019-04-23T06:59:33.587Z,20.40
2019-04-23T07:04:34.330Z,20.40
2019-04-23T07:07:29.668Z,20.40
2019-04-23T07:09:27.680Z,20.40
2019-04-23T07:12:05.595Z,20.40
2019-04-23T07:14:35.857Z,20.50
2019-04-23T07:17:03.819Z,20.50
2019-04-23T07:19:36.659Z,20.50
2019-04-23T07:22:14.679Z,20.60
2019-04-23T07:24:40.946Z,20.60
2019-04-23T07:27:07.298Z,20.60
2019-04-23T07:29:40.894Z,20.60
2019-04-23T07:32:05.311Z,20.60
2019-04-23T07:34:46.139Z,20.60
2019-04-23T07:37:05.092Z,20.60
2019-04-23T07:40:19.677Z,20.70
2019-04-23T07:42:41.992Z,20.70
2019-04-23T07:45:30.961Z,20.70
2019-04-23T07:58:29.133Z,20.70
2019-04-23T08:03:17.649Z,20.70
2019-04-23T08:05:39.557Z,20.70
2019-04-23T08:08:24.521Z,20.70
2019-04-23T08:10:47.205Z,20.70
2019-04-23T08:13:16.366Z,20.70
2019-04-23T08:15:43.375Z,20.70
2019-04-23T08:23:25.696Z,20.80
2019-04-23T08:26:22.168Z,20.80
2019-04-23T08:28:52.082Z,20.80
2019-04-23T08:31:16.455Z,20.80
2019-04-23T08:33:49.717Z,20.80
2019-04-23T08:38:56.938Z,20.80
2019-04-23T08:41:33.688Z,20.80
2019-04-23T08:43:46.642Z,20.80
2019-04-23T08:46:57.303Z,20.90
2019-04-23T08:49:22.754Z,20.90
2019-04-23T08:51:52.207Z,20.90
2019-04-23T08:54:32.212Z,20.90
2019-04-23T08:56:55.251Z,20.90
2019-04-23T08:59:24.930Z,20.90
2019-04-23T09:02:07.713Z,20.90
2019-04-23T09:04:23.924Z,20.90
2019-04-23T09:06:53.374Z,20.90
2019-04-23T09:09:20.163Z,20.90
2019-04-23T09:11:54.373Z,20.90
2019-04-23T09:14:08.967Z,20.90
2019-04-23T09:16:52.828Z,20.90
2019-04-23T09:19:23.210Z,20.90
2019-04-23T09:22:04.096Z,20.90
2019-04-23T09:24:29.452Z,20.90
2019-04-23T09:26:58.573Z,20.90
2019-04-23T09:29:30.515Z,20.90
2019-04-23T09:32:22.471Z,20.90
2019-04-23T09:35:12.940Z,20.90
2019-04-23T09:41:13.064Z,21.00
2019-04-23T09:44:14.822Z,21.00
2019-04-23T09:46:48.342Z,21.00
2019-04-23T09:49:14.950Z,21.00
2019-04-23T09:51:45.102Z,21.10
2019-04-23T09:56:41.523Z,21.00
2019-04-23T09:59:37.732Z,21.00
2019-04-23T10:01:36.347Z,21.00
2019-04-23T10:04:00.031Z,21.10
2019-04-23T10:06:23.316Z,21.10
2019-04-23T10:08:53.569Z,21.10
2019-04-23T10:11:19.848Z,21.10
2019-04-23T10:13:48.455Z,21.10
2019-04-23T10:16:19.396Z,21.10
2019-04-23T10:18:48.925Z,21.10
2019-04-23T10:21:19.350Z,21.10
2019-04-23T10:23:49.487Z,21.10
2019-04-23T10:26:19.630Z,21.20
2019-04-23T10:28:58.179Z,21.20
2019-04-23T10:31:27.074Z,21.20
2019-04-23T10:33:56.058Z,21.20
2019-04-23T10:36:27.687Z,21.20
2019-04-23T10:39:02.293Z,21.20
2019-04-23T10:41:25.830Z,21.20
2019-04-23T10:44:00.631Z,21.20
2019-04-23T10:47:15.201Z,21.20
2019-04-23T10:50:00.364Z,21.20
2019-04-23T10:54:59.064Z,21.20
2019-04-23T10:57:26.858Z,21.20
2019-04-23T10:59:56.419Z,21.20
2019-04-23T11:07:41.972Z,21.20
2019-04-23T11:10:11.211Z,21.20
2019-04-23T11:12:44.894Z,21.20
2019-04-23T11:15:44.241Z,21.20
2019-04-23T11:17:47.562Z,21.20
2019-04-23T11:20:30.665Z,21.20
2019-04-23T11:30:36.576Z,21.30
2019-04-23T11:35:33.881Z,21.30
2019-04-23T11:38:41.399Z,21.30
2019-04-23T11:43:06.190Z,21.20
2019-04-23T11:45:32.434Z,21.20
2019-04-23T11:48:21.890Z,21.20
2019-04-23T11:50:39.665Z,21.20
2019-04-23T11:52:56.756Z,21.20
2019-04-23T11:55:43.101Z,21.20
2019-04-23T11:58:07.738Z,21.20
2019-04-23T12:00:33.640Z,21.20
2019-04-23T12:03:08.544Z,21.20
2019-04-23T12:06:11.558Z,21.20
2019-04-23T12:08:43.089Z,21.30
2019-04-23T12:14:09.553Z,21.30
2019-04-23T12:19:33.044Z,21.30
2019-04-23T12:24:23.428Z,21.40
2019-04-23T12:26:42.416Z,21.40
2019-04-23T12:29:13.793Z,21.40
2019-04-23T12:31:38.491Z,21.40
2019-04-23T12:34:28.450Z,21.40
2019-04-23T12:36:50.903Z,21.40
2019-04-23T12:39:25.969Z,21.40
2019-04-23T12:42:01.702Z,21.40
2019-04-23T12:44:31.003Z,21.30
2019-04-23T12:47:05.162Z,21.40
2019-04-23T12:49:44.409Z,21.30
2019-04-23T12:52:07.095Z,21.40
2019-04-23T12:54:53.875Z,21.40
2019-04-23T12:57:14.764Z,21.40
2019-04-23T12:59:36.689Z,21.50
2019-04-23T13:04:47.530Z,21.50
2019-04-23T13:07:09.059Z,21.50
2019-04-23T13:09:45.786Z,21.50
2019-04-23T13:12:20.616Z,21.50
2019-04-23T13:17:26.600Z,21.50
2019-04-23T13:19:49.544Z,21.40
2019-04-23T13:22:16.599Z,21.50
2019-04-23T13:24:48.674Z,21.40
2019-04-23T13:27:23.311Z,21.40
2019-04-23T13:29:50.091Z,21.40
2019-04-23T13:32:21.362Z,21.40
2019-04-23T13:35:04.693Z,21.50
2019-04-23T13:37:31.657Z,21.40
2019-04-23T13:39:54.101Z,21.40
2019-04-23T13:42:35.555Z,21.40
2019-04-23T13:44:57.846Z,21.40
2019-04-23T13:47:32.000Z,21.50
2019-04-23T13:49:57.103Z,21.50
2019-04-23T13:52:55.105Z,21.40
2019-04-23T13:59:57.750Z,21.40
2019-04-23T14:02:31.110Z,21.40
2019-04-23T14:05:13.070Z,21.40
2019-04-23T14:13:03.415Z,21.40
2019-04-23T14:15:12.311Z,21.50
2019-04-23T14:20:18.981Z,21.50
2019-04-23T14:23:00.240Z,21.50
2019-04-23T14:25:10.099Z,21.50
2019-04-23T14:27:52.164Z,21.50
2019-04-23T14:32:45.411Z,21.50
2019-04-23T14:38:01.928Z,21.50
2019-04-23T14:40:19.708Z,21.50
2019-04-23T14:45:44.660Z,21.50
2019-04-23T14:48:03.906Z,21.50
2019-04-23T14:53:13.337Z,21.40
2019-04-23T14:58:10.070Z,21.50
2019-04-23T15:00:48.462Z,21.40
2019-04-23T15:03:17.248Z,21.40
2019-04-23T15:05:45.105Z,21.40
2019-04-23T15:08:04.052Z,21.40
2019-04-23T15:10:41.577Z,21.40
2019-04-23T15:13:06.880Z,21.40
2019-04-23T15:15:35.765Z,21.40
2019-04-23T15:18:14.210Z,21.40
2019-04-23T15:20:48.837Z,21.40
2019-04-23T15:23:33.217Z,21.40
2019-04-23T15:26:15.238Z,21.40
2019-04-23T15:28:10.930Z,21.50
2019-04-23T15:30:57.534Z,21.50
2019-04-23T15:36:03.926Z,21.50
2019-04-23T15:38:36.092Z,21.50
2019-04-23T15:40:56.696Z,21.50
2019-04-23T15:43:28.395Z,21.50
2019-04-23T15:45:52.559Z,21.50
2019-04-23T15:48:22.484Z,21.50
2019-04-23T15:56:18.275Z,21.50
2019-04-23T15:58:53.677Z,21.50
2019-04-23T16:01:17.857Z,21.50
2019-04-23T16:03:18.152Z,21.50
2019-04-23T16:05:46.834Z,21.50
2019-04-23T16:08:51.792Z,21.50
2019-04-23T16:11:29.689Z,21.50
2019-04-23T16:14:04.761Z,21.50
2019-04-23T16:16:26.147Z,21.50
2019-04-23T16:24:21.981Z,21.50
2019-04-23T16:26:57.998Z,21.50
2019-04-23T16:31:47.838Z,21.50
2019-04-23T16:37:03.795Z,21.50
2019-04-23T16:39:22.085Z,21.50
2019-04-23T16:42:06.007Z,21.50
2019-04-23T16:44:38.276Z,21.50
2019-04-23T16:47:04.421Z,21.50
2019-04-23T16:49:51.085Z,21.50
2019-04-23T16:52:02.055Z,21.40
2019-04-23T16:54:42.199Z,21.40
2019-04-23T17:00:03.030Z,21.40
2019-04-23T17:02:11.498Z,21.40
2019-04-23T17:04:30.803Z,21.40
2019-04-23T17:07:05.280Z,21.40
2019-04-23T17:14:32.975Z,21.40
2019-04-23T17:16:59.996Z,21.30
2019-04-23T17:19:40.128Z,21.30
2019-04-23T17:22:06.179Z,21.30
2019-04-23T17:24:29.857Z,21.20
2019-04-23T17:27:16.680Z,21.20
2019-04-23T17:32:38.570Z,21.30
2019-04-23T17:35:04.909Z,21.20
2019-04-23T17:42:50.879Z,21.20
2019-04-23T17:48:11.667Z,21.20
2019-04-23T17:50:52.808Z,21.20
2019-04-23T17:56:03.702Z,21.20
2019-04-23T17:58:25.414Z,21.20
2019-04-23T18:01:02.518Z,21.20
2019-04-23T18:03:28.290Z,21.20
2019-04-23T18:06:05.666Z,21.20
2019-04-23T18:08:29.217Z,21.20
2019-04-23T18:11:05.982Z,21.20
2019-04-23T18:13:28.199Z,21.20
2019-04-23T18:16:06.761Z,21.20
2019-04-23T18:18:33.597Z,21.20
2019-04-23T18:21:21.326Z,21.10
2019-04-23T18:24:27.692Z,21.00
2019-04-23T18:27:05.172Z,21.00
2019-04-23T18:29:47.511Z,21.00
2019-04-23T18:32:37.069Z,21.00
2019-04-23T18:37:32.906Z,21.00
2019-04-23T18:39:52.689Z,21.00
2019-04-23T18:42:31.817Z,21.10
2019-04-23T18:44:57.425Z,21.10
2019-04-23T18:47:32.363Z,21.10
2019-04-23T18:50:02.039Z,21.10
2019-04-23T18:54:55.683Z,21.10
2019-04-23T18:57:29.633Z,21.10
2019-04-23T19:00:21.256Z,21.10
2019-04-23T19:02:56.590Z,21.10
2019-04-23T19:05:35.631Z,21.10
2019-04-23T19:10:58.025Z,21.10
2019-04-23T19:13:39.726Z,21.10
2019-04-23T19:15:40.644Z,21.00
2019-04-23T19:18:18.921Z,21.00
2019-04-23T19:21:08.972Z,20.90
2019-04-23T19:23:25.938Z,20.90
2019-04-23T19:25:46.844Z,20.90
2019-04-23T19:31:08.416Z,20.90
2019-04-23T19:33:48.292Z,20.90
2019-04-23T19:36:17.219Z,21.00
2019-04-23T19:38:48.747Z,21.00
2019-04-23T19:41:23.849Z,20.90
2019-04-23T19:43:54.372Z,21.00
2019-04-23T19:46:48.083Z,21.00
2019-04-23T19:48:51.982Z,21.10
2019-04-23T19:51:16.877Z,21.10
2019-04-23T19:56:16.933Z,21.00
2019-04-23T19:58:54.318Z,21.00
2019-04-23T20:03:49.657Z,21.10
2019-04-23T20:06:29.114Z,21.10
2019-04-23T20:11:21.812Z,21.10
2019-04-23T20:13:54.215Z,21.00
2019-04-23T20:16:19.715Z,21.00
2019-04-23T20:18:52.371Z,20.90
2019-04-23T20:21:16.006Z,20.90
2019-04-23T20:26:19.941Z,20.90
2019-04-23T20:34:53.146Z,20.90
2019-04-23T20:36:57.818Z,21.00
2019-04-23T20:39:53.554Z,20.90
2019-04-23T20:42:16.271Z,21.00
2019-04-23T20:44:47.239Z,20.90
2019-04-23T20:47:10.233Z,20.90
2019-04-23T20:49:47.140Z,21.00
2019-04-23T20:52:07.116Z,21.00
2019-04-23T21:00:12.489Z,20.90
2019-04-23T21:10:34.814Z,20.90
2019-04-23T21:23:06.281Z,20.90
2019-04-23T21:25:30.822Z,20.90
2019-04-23T21:28:13.699Z,20.90
2019-04-23T21:36:15.408Z,20.90
2019-04-23T21:39:04.416Z,20.90
2019-04-23T21:41:29.307Z,20.90
2019-04-23T21:46:28.067Z,20.90
2019-04-23T21:49:09.430Z,20.90
2019-04-23T21:51:41.473Z,20.90
2019-04-23T21:53:56.802Z,20.90
2019-04-23T22:01:32.335Z,20.90
2019-04-23T22:04:10.207Z,20.90
2019-04-23T22:09:18.220Z,20.80
2019-04-23T22:11:49.526Z,20.80
2019-04-23T22:14:03.857Z,20.80
2019-04-23T22:16:50.054Z,20.80
2019-04-23T22:24:02.473Z,20.80
2019-04-23T22:31:38.757Z,20.90
2019-04-23T22:36:29.155Z,20.80
2019-04-23T22:39:03.112Z,20.80
2019-04-23T22:41:38.045Z,20.80
2019-04-23T22:46:51.117Z,20.80
2019-04-23T22:49:33.496Z,20.80
2019-04-23T22:51:55.217Z,20.80
2019-04-23T22:54:14.161Z,20.80
2019-04-23T22:56:56.637Z,20.80
2019-04-23T23:04:28.990Z,20.80
2019-04-23T23:07:02.753Z,20.80
2019-04-23T23:09:40.678Z,20.80
2019-04-23T23:14:27.662Z,20.80
2019-04-23T23:17:08.773Z,20.80
2019-04-23T23:19:42.666Z,20.80
2019-04-23T23:24:33.691Z,20.80
2019-04-23T23:26:58.991Z,20.80
2019-04-23T23:29:30.480Z,20.90
2019-04-23T23:32:11.121Z,20.80
2019-04-23T23:34:48.254Z,20.80
2019-04-23T23:39:51.779Z,20.80
2019-04-23T23:42:09.726Z,20.80
2019-04-23T23:47:14.706Z,20.80
2019-04-23T23:49:48.438Z,20.80
2019-04-23T23:52:02.860Z,20.80
2019-04-23T23:54:48.665Z,20.80
